Time;durP1;ratioP1;P1;durP2;ratioP2;P2;SDS_P1;SDS_P2;PMS_P1;PMS_P2;Temp;Humidity;BMP_temperature;BMP_pressure;BME280_temperature;BME280_humidity;BME280_pressure;Samples;Min_cycle;Max_cycle;Signal;HPM_P1;HPM_P2
2022/01/19 00:01:38;;;;;;;14.48;4.25;;;;;;;2.95;55.89;101732.66;4393145;32;33460;-92
2022/01/19 00:04:29;;;;;;;10.07;4.45;;;;;;;2.69;56.60;101734.75;4395129;32;32801;-91
2022/01/19 00:07:16;;;;;;;12.88;4.90;;;;;;;2.56;57.25;101733.62;4380671;32;32646;-91
2022/01/19 00:09:44;;;;;;;11.75;3.47;;;;;;;1.98;58.98;101740.22;4392909;32;33398;-91
2022/01/19 00:12:32;;;;;;;13.90;4.45;;;;;;;2.22;58.66;101738.16;4392039;32;32514;-89
2022/01/19 00:15:00;;;;;;;10.65;3.42;;;;;;;2.00;59.20;101741.16;4391684;32;33212;-89
2022/01/19 00:17:27;;;;;;;9.48;4.68;;;;;;;2.57;57.38;101740.62;4391559;32;33501;-89
2022/01/19 00:19:55;;;;;;;12.35;4.20;;;;;;;2.55;57.46;101740.56;4378738;32;33110;-89
2022/01/19 00:22:23;;;;;;;10.88;3.97;;;;;;;2.75;56.89;101741.00;4380414;32;33954;-93
2022/01/19 00:25:07;;;;;;;9.57;3.70;;;;;;;2.73;56.66;101739.19;4378110;32;32387;-93
2022/01/19 00:28:00;;;;;;;12.13;4.68;;;;;;;2.94;56.27;101730.88;4373762;32;32757;-93
2022/01/19 00:30:40;;;;;;;18.15;4.87;;;;;;;3.06;55.62;101744.16;4363607;32;32773;-89
2022/01/19 00:33:08;;;;;;;14.38;4.50;;;;;;;2.63;56.64;101763.34;4374752;32;32812;-90
2022/01/19 00:35:37;;;;;;;12.07;4.85;;;;;;;2.77;56.23;101762.75;4349273;32;32174;-89
2022/01/19 00:38:07;;;;;;;11.27;4.72;;;;;;;2.50;56.78;101765.69;4337051;33;34240;-90
2022/01/19 00:40:52;;;;;;;15.43;5.68;;;;;;;2.31;57.24;101772.25;4349309;32;33953;-89
2022/01/19 00:43:25;;;;;;;16.80;4.53;;;;;;;2.39;57.28;101777.62;4364575;32;33336;-88
2022/01/19 00:45:53;;;;;;;10.80;4.30;;;;;;;2.43;57.26;101778.59;4388030;32;32582;-88
2022/01/19 00:48:26;;;;;;;18.15;4.80;;;;;;;2.50;57.21;101770.03;4356935;32;32751;-88
2022/01/19 00:50:56;;;;;;;16.62;4.30;;;;;;;2.53;57.24;101775.31;4375496;32;33211;-88
2022/01/19 00:53:24;;;;;;;10.20;3.90;;;;;;;2.58;56.67;101781.50;4375274;32;33788;-88
2022/01/19 00:55:52;;;;;;;15.98;4.50;;;;;;;2.65;56.51;101790.31;4362537;32;34105;-88
2022/01/19 00:58:20;;;;;;;14.70;4.35;;;;;;;2.61;56.38;101786.78;4360088;32;33428;-88
2022/01/19 01:00:47;;;;;;;16.02;5.15;;;;;;;2.49;56.39;101776.97;4377795;32;33193;-88
2022/01/19 01:03:15;;;;;;;9.30;4.28;;;;;;;2.51;56.32;101770.03;4368323;32;33021;-88
2022/01/19 01:05:44;;;;;;;16.67;4.75;;;;;;;2.48;56.20;101761.31;4386265;32;32505;-88
2022/01/19 01:08:12;;;;;;;11.05;4.05;;;;;;;2.40;56.05;101773.28;4363445;32;33202;-87
2022/01/19 01:10:43;;;;;;;9.93;4.78;;;;;;;2.36;55.95;101777.56;4375791;32;32587;-88
2022/01/19 01:13:21;;;;;;;11.25;5.28;;;;;;;2.22;56.66;101761.59;4381965;32;33452;-88
2022/01/19 01:18:29;;;;;;;12.27;4.50;;;;;;;2.17;56.79;101760.62;4366975;32;33423;-88
2022/01/19 01:20:59;;;;;;;16.15;4.32;;;;;;;2.08;56.72;101755.22;4388314;32;33540;-87
2022/01/19 01:23:29;;;;;;;19.08;5.07;;;;;;;2.10;56.75;101748.34;4362816;32;32599;-88
2022/01/19 01:25:57;;;;;;;16.45;4.65;;;;;;;2.21;56.39;101749.44;4368064;32;33726;-87
2022/01/19 01:28:24;;;;;;;14.40;4.75;;;;;;;2.02;56.81;101750.75;4388400;32;32712;-87
2022/01/19 01:30:52;;;;;;;15.75;4.75;;;;;;;2.19;56.32;101743.31;4371333;32;33971;-87
2022/01/19 01:33:20;;;;;;;16.27;3.80;;;;;;;2.14;56.41;101731.91;4382790;32;34105;-87
2022/01/19 01:35:49;;;;;;;14.70;4.40;;;;;;;2.04;56.94;101717.81;4383633;32;33752;-87
2022/01/19 01:38:17;;;;;;;15.50;4.55;;;;;;;1.87;57.45;101713.06;4375962;32;33197;-88
2022/01/19 01:41:08;;;;;;;12.95;4.53;;;;;;;1.84;57.42;101707.78;4384404;32;32825;-87
2022/01/19 01:43:35;;;;;;;13.95;4.75;;;;;;;1.71;57.35;101715.34;4371092;32;34627;-88
2022/01/19 01:46:11;;;;;;;13.05;5.00;;;;;;;1.89;56.83;101717.44;4376589;32;32536;-88
2022/01/19 01:48:45;;;;;;;15.23;4.03;;;;;;;1.94;56.58;101710.63;4383352;32;35503;-85
2022/01/19 01:54:00;;;;;;;15.02;4.97;;;;;;;1.91;56.60;101694.94;4371529;32;32759;-87
2022/01/19 01:56:28;;;;;;;13.35;4.93;;;;;;;1.87;56.60;101702.66;4383112;32;34303;-87
2022/01/19 01:58:56;;;;;;;14.52;4.53;;;;;;;1.82;56.76;101709.50;4369169;32;32919;-87
2022/01/19 02:01:30;;;;;;;14.15;5.05;;;;;;;1.52;57.69;101707.94;4364192;32;33820;-88
2022/01/19 02:03:59;;;;;;;13.82;3.28;;;;;;;1.56;57.79;101707.16;4377248;32;34351;-88
2022/01/19 02:15:48;;;;;;;11.32;4.10;;;;;;;1.83;57.29;101677.37;4382325;32;32992;-88
2022/01/19 02:23:27;;;;;;;10.65;3.78;;;;;;;1.41;57.96;101686.84;4364906;32;34558;-88
2022/01/19 02:25:59;;;;;;;9.80;4.18;;;;;;;1.54;57.59;101688.03;4365139;32;33228;-87
2022/01/19 02:42:35;;;;;;;14.30;4.32;;;;;;;1.66;57.51;101663.97;4365055;32;32584;-90
2022/01/19 02:50:44;;;;;;;14.15;4.15;;;;;;;1.42;58.13;101661.69;4366838;32;32390;-85
2022/01/19 02:53:16;;;;;;;10.30;3.85;;;;;;;1.35;58.69;101649.38;4367682;32;33201;-86
2022/01/19 02:55:45;;;;;;;19.77;4.95;;;;;;;1.30;58.99;101646.69;4380408;32;33543;-86
2022/01/19 02:58:17;;;;;;;11.40;4.15;;;;;;;1.32;58.36;101644.09;4355289;32;33029;-87
2022/01/19 03:09:05;;;;;;;13.70;4.25;;;;;;;0.80;60.52;101642.81;4366750;32;33722;-87
2022/01/19 03:11:36;;;;;;;17.40;5.03;;;;;;;0.90;59.87;101635.31;4380464;32;32974;-86
2022/01/19 03:14:07;;;;;;;15.40;4.85;;;;;;;0.76;60.17;101642.75;4367857;32;32561;-87
2022/01/19 03:16:36;;;;;;;12.23;4.50;;;;;;;0.63;60.30;101632.88;4376434;32;34011;-86
2022/01/19 03:19:06;;;;;;;11.55;4.22;;;;;;;0.50;61.22;101623.00;4355586;32;33160;-86
2022/01/19 03:21:34;;;;;;;10.35;4.85;;;;;;;0.61;61.01;101624.16;4366167;32;33696;-88
2022/01/19 03:24:03;;;;;;;12.50;4.07;;;;;;;0.92;60.00;101622.34;4379765;32;33277;-88
2022/01/19 03:26:30;;;;;;;13.45;5.10;;;;;;;0.96;59.68;101613.78;4366327;32;33109;-88
2022/01/19 03:29:00;;;;;;;12.20;4.28;;;;;;;0.92;59.50;101612.81;4378156;32;33124;-88
2022/01/19 03:31:28;;;;;;;11.88;4.32;;;;;;;0.70;59.89;101613.97;4366815;32;33659;-88
2022/01/19 03:33:56;;;;;;;12.30;4.62;;;;;;;0.88;59.42;101620.50;4360057;32;32087;-87
2022/01/19 03:36:24;;;;;;;20.70;5.10;;;;;;;0.76;59.80;101615.88;4371082;32;33253;-87
2022/01/19 03:38:52;;;;;;;16.55;4.18;;;;;;;0.71;59.92;101613.16;4370702;32;33266;-90
2022/01/19 03:41:20;;;;;;;9.98;4.30;;;;;;;0.49;61.03;101626.44;4371333;32;32667;-89
2022/01/19 03:44:28;;;;;;;8.48;3.72;;;;;;;0.58;60.55;101616.28;4354382;32;33517;-90
2022/01/19 03:47:19;;;;;;;8.77;3.67;;;;;;;0.76;59.90;101626.28;4401412;32;33217;-89
2022/01/19 03:49:55;;;;;;;8.95;3.87;;;;;;;0.90;59.00;101618.81;4414760;32;32807;-89
2022/01/19 03:52:23;;;;;;;14.35;4.37;;;;;;;0.77;59.18;101622.84;4402508;32;33193;-89
2022/01/19 03:54:51;;;;;;;13.23;4.78;;;;;;;0.82;58.86;101620.34;4366741;32;32625;-90
2022/01/19 03:57:20;;;;;;;16.50;4.72;;;;;;;0.71;59.64;101614.88;4390611;32;33163;-90
2022/01/19 03:59:48;;;;;;;15.77;4.28;;;;;;;0.83;59.43;101614.31;4408801;32;34668;-89
2022/01/19 04:02:43;;;;;;;16.23;4.25;;;;;;;0.91;59.00;101615.38;4402291;32;32197;-88
2022/01/19 04:05:20;;;;;;;10.68;3.83;;;;;;;0.91;58.72;101621.47;4393422;32;32757;-88
2022/01/19 04:07:49;;;;;;;18.42;3.58;;;;;;;0.98;58.10;101617.28;4392230;32;32765;-88
2022/01/19 04:10:18;;;;;;;14.52;4.28;;;;;;;0.90;57.99;101618.81;4412805;32;32665;-89
2022/01/19 04:13:07;;;;;;;9.70;3.78;;;;;;;0.84;58.25;101616.06;4394950;32;33574;-89
2022/01/19 04:15:50;;;;;;;12.48;4.65;;;;;;;0.77;58.81;101626.31;4424795;32;33107;-91
2022/01/19 04:18:18;;;;;;;14.95;4.07;;;;;;;0.67;59.22;101616.53;4419341;32;33012;-92
2022/01/19 04:21:02;;;;;;;14.00;4.68;;;;;;;0.48;58.93;101629.87;4373491;32;33732;-91
2022/01/19 04:23:53;;;;;;;17.25;4.32;;;;;;;0.35;59.90;101623.47;4379775;32;34139;-91
2022/01/19 04:26:33;;;;;;;22.80;5.68;;;;;;;0.48;59.86;101611.69;4396159;32;33726;-90
2022/01/19 04:29:14;;;;;;;20.67;5.68;;;;;;;0.50;59.68;101608.28;4399883;32;32961;-90
2022/01/19 04:32:11;;;;;;;16.00;4.47;;;;;;;0.70;58.42;101605.31;4392885;32;32870;-90
2022/01/19 04:35:06;;;;;;;15.05;4.57;;;;;;;0.44;59.34;101612.44;4385889;32;33049;-90
2022/01/19 04:44:07;;;;;;;12.10;4.65;;;;;;;0.36;59.59;101596.63;4393891;32;35653;-89
2022/01/19 05:03:44;;;;;;;12.32;4.95;;;;;;;0.13;58.78;101585.63;4392910;32;34756;-86
2022/01/19 05:06:16;;;;;;;22.37;6.53;;;;;;;0.21;58.37;101588.44;4391203;32;32802;-86
2022/01/19 05:09:07;;;;;;;17.52;5.90;;;;;;;0.07;58.48;101585.47;4400980;32;33015;-86
2022/01/19 05:14:21;;;;;;;28.25;7.82;;;;;;;0.09;59.17;101577.72;4399599;32;33490;-89
2022/01/19 05:17:05;;;;;;;20.42;8.63;;;;;;;0.23;58.52;101582.44;4393034;32;33241;-90
2022/01/19 05:19:55;;;;;;;27.92;8.55;;;;;;;0.07;59.10;101580.28;4389741;32;33438;-87
2022/01/19 05:22:23;;;;;;;20.85;8.48;;;;;;;0.18;58.77;101573.63;4362821;32;32700;-87
2022/01/19 05:24:51;;;;;;;25.30;8.80;;;;;;;0.26;58.32;101571.25;4400820;32;33421;-87
2022/01/19 05:27:22;;;;;;;25.60;7.18;;;;;;;-0.01;59.06;101581.78;4389101;32;34095;-87
2022/01/19 05:29:51;;;;;;;19.27;6.87;;;;;;;0.19;58.74;101578.03;4376291;32;34197;-87
2022/01/19 05:32:19;;;;;;;17.02;5.65;;;;;;;0.07;59.32;101576.81;4402056;32;31941;-88
2022/01/19 05:34:47;;;;;;;18.25;5.93;;;;;;;0.24;58.90;101579.03;4390744;32;34332;-88
2022/01/19 05:37:18;;;;;;;20.48;7.60;;;;;;;0.04;59.65;101582.78;4391298;32;33348;-88
2022/01/19 05:39:46;;;;;;;18.42;6.57;;;;;;;0.13;59.19;101579.56;4389840;32;30536;-88
2022/01/19 05:42:16;;;;;;;15.10;5.82;;;;;;;0.13;59.01;101575.25;4391176;32;32787;-88
2022/01/19 05:44:45;;;;;;;15.60;5.78;;;;;;;0.04;58.73;101572.37;4366523;32;33283;-88
2022/01/19 05:47:18;;;;;;;21.50;7.07;;;;;;;-0.18;59.27;101580.44;4389674;32;33702;-88
2022/01/19 05:49:46;;;;;;;20.62;7.25;;;;;;;-0.19;59.34;101581.25;4388053;32;31007;-88
2022/01/19 05:52:14;;;;;;;20.77;7.10;;;;;;;-0.34;59.45;101577.38;4401471;32;31858;-88
2022/01/19 05:54:45;;;;;;;23.40;7.25;;;;;;;-0.16;58.98;101576.16;4388687;32;34034;-89
2022/01/19 05:57:13;;;;;;;14.18;7.00;;;;;;;-0.15;58.72;101570.13;4401318;32;32989;-89
2022/01/19 05:59:41;;;;;;;18.62;6.65;;;;;;;-0.05;58.13;101570.44;4390618;32;33917;-90
2022/01/19 06:02:31;;;;;;;19.30;7.78;;;;;;;-0.24;57.87;101570.72;4389692;32;34274;-90
2022/01/19 06:05:05;;;;;;;20.60;7.87;;;;;;;-0.47;58.58;101587.38;4391225;32;32651;-89
2022/01/19 06:11:06;;;;;;;21.02;6.93;;;;;;;-0.54;59.93;101586.31;4373816;32;32423;-90
2022/01/19 06:14:24;;;;;;;15.93;6.40;;;;;;;-0.45;59.25;101581.38;4349874;32;32883;-91
2022/01/19 06:17:15;;;;;;;25.58;7.85;;;;;;;-0.43;58.99;101584.91;4370090;32;33319;-90
2022/01/19 06:19:44;;;;;;;26.87;10.80;;;;;;;-0.54;60.15;101588.91;4343099;32;32818;-90
2022/01/19 06:22:13;;;;;;;45.97;15.38;;;;;;;-0.36;59.41;101589.44;4357690;32;31955;-90
2022/01/19 06:24:41;;;;;;;63.33;24.85;;;;;;;-0.26;58.78;101578.50;4371205;32;32781;-90
2022/01/19 06:27:08;;;;;;;42.78;17.20;;;;;;;-0.16;58.51;101584.81;4360074;32;32858;-89
2022/01/19 06:29:36;;;;;;;35.78;14.05;;;;;;;-0.31;59.38;101586.97;4352300;32;33707;-88
2022/01/19 06:32:04;;;;;;;62.03;22.30;;;;;;;-0.18;58.86;101583.03;4354262;32;33447;-88
2022/01/19 06:34:32;;;;;;;42.53;16.50;;;;;;;-0.26;58.66;101590.59;4329790;32;34251;-89
2022/01/19 06:37:04;;;;;;;50.92;18.58;;;;;;;-0.48;59.50;101586.47;4365350;32;33819;-88
2022/01/19 06:39:32;;;;;;;48.20;18.60;;;;;;;-0.61;60.02;101587.84;4352895;32;32504;-88
2022/01/19 06:42:01;;;;;;;38.20;17.27;;;;;;;-0.29;58.98;101585.31;4367405;32;32949;-88
2022/01/19 06:44:29;;;;;;;46.65;19.73;;;;;;;-0.15;58.41;101583.97;4354790;32;33155;-90
2022/01/19 06:46:58;;;;;;;53.92;21.48;;;;;;;-0.21;58.42;101588.12;4357000;32;33294;-90
2022/01/19 06:49:26;;;;;;;39.03;17.17;;;;;;;-0.30;58.37;101584.44;4378908;32;32849;-89
2022/01/19 06:51:54;;;;;;;44.80;16.77;;;;;;;0.03;57.81;101568.03;4364105;32;33697;-95
2022/01/19 06:54:48;;;;;;;38.65;15.48;;;;;;;-0.11;58.37;101571.97;4370208;32;33103;-95
2022/01/19 06:57:27;;;;;;;40.55;15.80;;;;;;;-0.34;59.49;101574.78;4366797;32;33583;-95
2022/01/19 07:00:21;;;;;;;49.20;17.50;;;;;;;-0.42;59.67;101578.91;4392830;32;34477;-96
2022/01/19 07:03:13;;;;;;;37.08;16.35;;;;;;;-0.36;59.57;101573.88;4375798;32;33266;-95
2022/01/19 07:06:33;;;;;;;61.60;20.62;;;;;;;-0.11;58.69;101570.25;4388031;32;32551;-94
2022/01/19 07:09:12;;;;;;;60.10;23.45;;;;;;;-0.15;58.75;101557.12;4366538;32;33021;-89
2022/01/19 07:12:15;;;;;;;78.82;26.23;;;;;;;-0.30;59.34;101566.25;4373624;32;32715;-92
2022/01/19 07:14:48;;;;;;;108.18;33.20;;;;;;;0.27;57.94;101565.22;4394589;32;32573;-90
2022/01/19 07:17:39;;;;;;;133.65;41.53;;;;;;;0.37;57.96;101555.94;4393555;32;32416;-90
2022/01/19 07:20:30;;;;;;;137.07;45.30;;;;;;;-0.18;59.63;101551.87;4384050;32;34554;-91
2022/01/19 07:23:41;;;;;;;88.05;31.23;;;;;;;-0.35;60.68;101552.25;4339397;32;33623;-89
2022/01/19 07:26:25;;;;;;;52.03;21.05;;;;;;;-0.25;60.75;101548.22;4357196;32;32475;-89
2022/01/19 07:28:55;;;;;;;35.33;11.65;;;;;;;0.13;59.73;101546.66;4375015;32;33099;-89
2022/01/19 07:31:23;;;;;;;35.67;14.52;;;;;;;0.04;59.85;101538.63;4385886;32;32924;-89
2022/01/19 07:33:51;;;;;;;46.42;16.30;;;;;;;0.15;60.14;101531.16;4360394;32;33188;-89
2022/01/19 07:36:19;;;;;;;31.37;14.57;;;;;;;0.03;60.21;101530.81;4349460;32;33914;-89
2022/01/19 07:38:47;;;;;;;26.37;12.93;;;;;;;0.15;59.92;101525.94;4374125;32;33297;-90
2022/01/19 07:41:17;;;;;;;35.03;12.93;;;;;;;-0.08;60.48;101517.53;4375580;32;33464;-90
2022/01/19 07:43:47;;;;;;;32.70;13.25;;;;;;;0.53;59.14;101518.25;4352805;32;31984;-90
2022/01/19 07:46:48;;;;;;;40.15;12.68;;;;;;;0.43;59.79;101518.03;4361891;32;33614;-89
2022/01/19 07:49:16;;;;;;;31.20;14.27;;;;;;;0.26;60.25;101516.69;4343898;32;33062;-89
2022/01/19 07:51:46;;;;;;;34.35;13.43;;;;;;;0.30;60.36;101518.53;4347507;32;34118;-89
2022/01/19 07:54:18;;;;;;;30.60;12.65;;;;;;;0.49;60.22;101512.09;4374486;32;33368;-90
2022/01/19 07:56:49;;;;;;;33.55;13.45;;;;;;;0.53;60.61;101519.13;4362247;32;31613;-89
2022/01/19 07:59:41;;;;;;;30.83;13.35;;;;;;;0.79;60.35;101518.84;4370588;32;32793;-89
2022/01/19 08:02:11;;;;;;;36.20;13.23;;;;;;;1.06;59.65;101514.28;4338557;32;34255;-89
2022/01/19 08:04:42;;;;;;;37.63;14.20;;;;;;;1.22;59.20;101516.38;4356568;32;32397;-89
2022/01/19 08:07:11;;;;;;;31.48;14.27;;;;;;;1.30;59.05;101513.97;4341971;32;32237;-89
2022/01/19 08:09:40;;;;;;;39.92;15.95;;;;;;;1.35;58.94;101507.13;4374710;32;33329;-90
2022/01/19 08:12:10;;;;;;;46.20;16.70;;;;;;;1.28;59.20;101508.72;4353260;32;34067;-90
2022/01/19 08:14:38;;;;;;;52.20;17.80;;;;;;;1.50;58.99;101511.75;4332359;33;34648;-90
2022/01/19 08:17:06;;;;;;;36.80;16.30;;;;;;;1.62;59.03;101493.81;4368711;32;32171;-89
2022/01/19 08:19:36;;;;;;;41.45;17.42;;;;;;;1.88;58.59;101499.50;4373659;32;33480;-90
2022/01/19 08:22:04;;;;;;;39.75;16.42;;;;;;;1.85;58.90;101488.13;4364638;32;33441;-90
2022/01/19 08:24:49;;;;;;;31.73;12.30;;;;;;;1.81;59.48;101492.44;4376522;32;33276;-90
2022/01/19 08:27:17;;;;;;;24.95;10.50;;;;;;;2.36;58.14;101475.16;4347017;32;34197;-91
2022/01/19 08:30:03;;;;;;;44.28;17.10;;;;;;;2.39;58.40;101479.56;4351309;32;33131;-90
2022/01/19 08:32:38;;;;;;;33.55;14.45;;;;;;;2.16;58.94;101480.03;4349245;32;34554;-90
2022/01/19 08:35:29;;;;;;;31.15;13.35;;;;;;;2.20;58.92;101479.25;4365871;32;33028;-88
2022/01/19 08:37:58;;;;;;;24.60;11.85;;;;;;;2.36;58.84;101487.31;4363173;32;32024;-88
2022/01/19 08:40:28;;;;;;;29.48;11.95;;;;;;;2.54;58.51;101485.00;4369825;32;33131;-88
2022/01/19 08:42:58;;;;;;;17.65;8.15;;;;;;;2.92;57.77;101482.09;4369672;32;34451;-88
2022/01/19 08:45:26;;;;;;;21.33;7.65;;;;;;;3.12;57.19;101475.41;4363343;32;32998;-88
2022/01/19 08:47:54;;;;;;;21.17;6.45;;;;;;;2.70;58.26;101481.78;4373582;32;32601;-90
2022/01/19 08:50:23;;;;;;;15.35;6.50;;;;;;;2.71;58.12;101485.28;4351180;32;32467;-88
2022/01/19 08:52:52;;;;;;;14.80;6.28;;;;;;;2.62;58.62;101486.00;4363358;32;34418;-88
2022/01/19 08:55:20;;;;;;;20.33;7.50;;;;;;;2.73;58.31;101481.84;4380048;32;33659;-88
2022/01/19 08:57:50;;;;;;;18.10;5.97;;;;;;;3.29;56.88;101476.53;4353679;32;33431;-88
2022/01/19 09:00:19;;;;;;;20.00;7.35;;;;;;;3.37;56.66;101476.66;4381244;32;33187;-88
2022/01/19 09:02:47;;;;;;;17.42;6.37;;;;;;;3.20;57.45;101468.59;4380540;32;32718;-88
2022/01/19 09:05:15;;;;;;;17.75;7.05;;;;;;;3.47;56.68;101470.66;4355507;32;31020;-88
2022/01/19 09:07:44;;;;;;;18.70;6.45;;;;;;;3.99;55.45;101466.00;4371467;32;32522;-88
2022/01/19 09:10:12;;;;;;;19.75;5.97;;;;;;;4.07;55.25;101466.94;4354943;32;33886;-88
2022/01/19 09:12:40;;;;;;;21.45;7.53;;;;;;;4.32;54.49;101460.22;4352850;32;32955;-88
2022/01/19 09:15:09;;;;;;;67.00;25.10;;;;;;;4.48;53.79;101463.81;4355441;32;32641;-87
2022/01/19 09:17:37;;;;;;;30.20;11.65;;;;;;;3.82;55.30;101460.59;4391621;32;32661;-87
2022/01/19 09:20:09;;;;;;;22.85;10.85;;;;;;;3.79;56.00;101463.16;4364031;32;32750;-87
2022/01/19 09:22:37;;;;;;;17.62;6.37;;;;;;;4.49;54.71;101465.56;4377221;32;34031;-87
2022/01/19 09:25:07;;;;;;;12.68;5.75;;;;;;;4.39;55.24;101463.75;4362338;32;34569;-87
2022/01/19 09:27:37;;;;;;;16.40;5.82;;;;;;;4.68;54.96;101456.09;4361255;32;35115;-87
2022/01/19 09:30:08;;;;;;;12.60;6.32;;;;;;;5.12;53.12;101455.50;4371477;32;33924;-87
2022/01/19 09:32:35;;;;;;;13.75;6.43;;;;;;;5.24;52.26;101458.19;4364140;32;33703;-87
2022/01/19 09:35:10;;;;;;;21.83;6.80;;;;;;;5.12;52.13;101460.72;4355125;32;32701;-87
2022/01/19 09:37:39;;;;;;;20.58;6.15;;;;;;;5.51;52.16;101449.56;4367266;32;32301;-87
2022/01/19 09:40:26;;;;;;;11.70;4.72;;;;;;;5.29;52.97;101443.34;4388857;32;33990;-87
2022/01/19 09:43:05;;;;;;;12.70;6.28;;;;;;;5.41;52.32;101445.12;4380047;32;33216;-87
2022/01/19 09:45:32;;;;;;;11.75;5.70;;;;;;;5.96;50.73;101441.84;4355124;32;32573;-87
2022/01/19 09:48:00;;;;;;;18.40;7.53;;;;;;;6.24;49.31;101427.88;4368817;32;32177;-87
2022/01/19 09:50:28;;;;;;;19.00;6.75;;;;;;;6.22;48.96;101421.75;4355317;32;32950;-87
2022/01/19 09:52:55;;;;;;;15.30;6.07;;;;;;;6.06;49.55;101427.84;4369846;32;33122;-87
2022/01/19 09:55:23;;;;;;;12.82;5.07;;;;;;;6.18;48.58;101408.66;4368929;32;32579;-87
2022/01/19 09:57:51;;;;;;;15.35;7.05;;;;;;;6.09;48.55;101404.25;4379760;32;33649;-88
2022/01/19 10:00:19;;;;;;;23.58;6.50;;;;;;;5.80;50.33;101406.84;4354021;32;33054;-87
2022/01/19 10:03:22;;;;;;;20.83;7.00;;;;;;;5.54;50.83;101399.78;4381213;32;33167;-87
2022/01/19 10:05:58;;;;;;;17.77;5.95;;;;;;;5.94;50.15;101399.03;4359600;32;33052;-87
2022/01/19 10:08:28;;;;;;;15.77;6.45;;;;;;;5.89;50.24;101386.75;4348477;32;33318;-89
2022/01/19 10:19:32;;;;;;;17.35;7.40;;;;;;;6.24;49.30;101357.03;4361252;32;33371;-88
2022/01/19 10:22:17;;;;;;;26.50;7.50;;;;;;;7.06;46.84;101349.81;4367758;32;35113;-88
2022/01/19 10:24:55;;;;;;;21.75;6.65;;;;;;;7.29;46.23;101336.56;4358224;32;184362;-88
2022/01/19 10:27:39;;;;;;;22.25;6.82;;;;;;;6.74;47.45;101337.69;4361377;32;32814;-89
2022/01/19 10:30:08;;;;;;;24.80;7.10;;;;;;;6.45;48.06;101331.63;4350863;32;32213;-89
2022/01/19 10:33:02;;;;;;;23.50;9.43;;;;;;;6.95;47.07;101320.09;4358989;32;32771;-89
2022/01/19 10:35:38;;;;;;;23.02;9.05;;;;;;;6.87;47.29;101325.37;4351449;32;33919;-88
2022/01/19 10:38:08;;;;;;;24.02;7.18;;;;;;;6.88;47.98;101325.41;4360799;32;34193;-89
2022/01/19 10:40:38;;;;;;;21.62;7.75;;;;;;;7.60;45.65;101316.22;4337217;32;33972;-89
2022/01/19 10:43:24;;;;;;;17.85;6.15;;;;;;;7.30;46.92;101302.38;4359224;32;33626;-89
2022/01/19 10:45:54;;;;;;;16.02;5.28;;;;;;;7.73;45.16;101294.19;4360236;32;35153;-89
2022/01/19 10:48:32;;;;;;;14.85;6.22;;;;;;;7.90;43.73;101299.31;4350909;32;33196;-89
2022/01/19 10:51:13;;;;;;;14.82;5.22;;;;;;;7.79;44.75;101286.28;4348669;32;32511;-88
2022/01/19 10:53:46;;;;;;;16.70;6.00;;;;;;;7.74;44.86;101280.19;4355427;32;32728;-89
2022/01/19 10:56:28;;;;;;;19.45;6.55;;;;;;;7.89;44.89;101281.81;4363557;32;33809;-88
2022/01/19 10:59:16;;;;;;;18.92;7.82;;;;;;;8.60;42.47;101260.91;4352230;32;33159;-88
2022/01/19 11:01:45;;;;;;;14.63;7.87;;;;;;;8.45;42.35;101257.56;4359826;32;33795;-89
2022/01/19 11:04:31;;;;;;;13.30;7.57;;;;;;;8.73;41.99;101251.94;4360153;32;34909;-89
2022/01/19 11:07:03;;;;;;;16.20;6.95;;;;;;;8.59;42.14;101248.59;4349957;32;33082;-88
2022/01/19 11:09:34;;;;;;;17.87;5.62;;;;;;;8.85;41.39;101246.53;4350126;32;32313;-88
2022/01/19 11:12:11;;;;;;;18.15;6.47;;;;;;;8.80;41.36;101242.22;4339183;32;33907;-88
2022/01/19 11:14:40;;;;;;;16.30;6.05;;;;;;;8.68;41.50;101233.56;4347558;32;32728;-88
2022/01/19 11:17:28;;;;;;;13.93;5.93;;;;;;;8.72;41.79;101229.13;4366583;32;32894;-88
2022/01/19 11:19:56;;;;;;;12.57;5.47;;;;;;;8.69;41.63;101218.66;4364904;32;33859;-88
2022/01/19 11:22:50;;;;;;;9.75;4.62;;;;;;;8.32;43.68;101219.09;4352286;32;32243;-89
2022/01/19 11:25:25;;;;;;;14.35;5.20;;;;;;;8.18;43.61;101203.44;4357144;32;32351;-88
2022/01/19 11:28:34;;;;;;;17.58;5.12;;;;;;;8.17;43.14;101204.34;4363694;32;34077;-88
2022/01/19 11:31:06;;;;;;;10.10;4.20;;;;;;;8.69;42.84;101206.37;4363843;32;33963;-88
2022/01/19 11:33:43;;;;;;;9.43;5.10;;;;;;;9.15;41.26;101191.62;4352823;32;32799;-88
2022/01/19 11:36:20;;;;;;;17.10;5.15;;;;;;;9.10;41.91;101189.06;4365529;32;33704;-88
2022/01/19 11:38:50;;;;;;;10.55;4.32;;;;;;;8.68;43.06;101190.56;4354381;32;33943;-89
2022/01/19 11:41:18;;;;;;;16.27;4.45;;;;;;;9.14;42.20;101179.37;4337573;32;34090;-89
2022/01/19 11:43:57;;;;;;;9.50;4.82;;;;;;;8.80;42.04;101171.97;4353830;32;33849;-88
2022/01/19 11:46:34;;;;;;;14.68;5.85;;;;;;;9.40;40.57;101156.09;4355108;32;33099;-89
2022/01/19 11:49:04;;;;;;;14.30;5.15;;;;;;;8.89;42.77;101158.66;4375916;32;33005;-88
2022/01/19 11:51:34;;;;;;;12.77;4.47;;;;;;;8.43;44.34;101161.94;4349380;32;32671;-88
2022/01/19 11:54:16;;;;;;;15.68;4.95;;;;;;;8.97;41.67;101163.81;4357647;32;33140;-88
2022/01/19 11:56:59;;;;;;;8.55;4.57;;;;;;;8.66;43.36;101160.75;4337004;32;33762;-88
2022/01/19 11:59:55;;;;;;;9.93;4.62;;;;;;;8.49;43.75;101157.47;4362800;32;33229;-88
2022/01/19 12:02:28;;;;;;;11.70;4.95;;;;;;;9.23;41.31;101150.22;4353582;32;33553;-88
2022/01/19 12:05:37;;;;;;;11.80;4.90;;;;;;;9.32;41.22;101141.31;4364519;32;33096;-88
2022/01/19 12:08:32;;;;;;;18.55;5.10;;;;;;;8.54;43.22;101143.34;4354784;32;30595;-89
2022/01/19 12:11:10;;;;;;;15.35;5.30;;;;;;;8.45;43.56;101141.75;4353745;32;33464;-88
2022/01/19 12:17:08;;;;;;;10.70;5.07;;;;;;;9.14;42.35;101131.94;4363016;32;33850;-88
2022/01/19 12:19:07;;;;;;;13.38;4.35;;;;;;;8.95;42.84;101119.06;4348180;32;35084;-87
2022/01/19 12:22:22;;;;;;;12.30;5.18;;;;;;;8.86;43.29;101115.69;4353577;32;33087;-88
2022/01/19 12:24:59;;;;;;;12.48;4.45;;;;;;;8.51;43.69;101118.87;4367243;32;32829;-88
2022/01/19 12:27:29;;;;;;;11.70;4.18;;;;;;;8.91;42.82;101114.72;4366972;32;32389;-88
2022/01/19 12:30:12;;;;;;;14.95;5.05;;;;;;;8.78;42.88;101113.16;4352918;32;33235;-88
2022/01/19 12:32:41;;;;;;;8.73;4.10;;;;;;;8.35;43.65;101107.63;4362461;32;33330;-88
2022/01/19 12:35:12;;;;;;;15.45;4.43;;;;;;;8.27;44.43;101106.88;4356983;32;32892;-88
2022/01/19 12:37:42;;;;;;;12.55;3.85;;;;;;;8.10;44.41;101107.94;4353624;32;33728;-88
2022/01/19 12:40:12;;;;;;;10.70;4.62;;;;;;;8.26;44.10;101111.28;4363945;32;33758;-86
2022/01/19 12:43:01;;;;;;;11.10;4.15;;;;;;;8.52;43.47;101096.91;4378659;32;32843;-87
2022/01/19 12:45:34;;;;;;;14.70;4.40;;;;;;;8.77;42.94;101084.22;4371306;32;33896;-87
2022/01/19 12:48:05;;;;;;;10.13;4.05;;;;;;;8.07;44.59;101091.31;4377359;32;32241;-87
2022/01/19 12:50:40;;;;;;;11.10;4.97;;;;;;;7.73;45.53;101086.47;4365077;32;32756;-86
2022/01/19 12:53:12;;;;;;;15.10;4.82;;;;;;;8.35;44.21;101076.91;4377882;32;33344;-87
2022/01/19 12:55:42;;;;;;;12.98;4.12;;;;;;;8.07;44.85;101076.44;4376041;32;33563;-87
2022/01/19 12:58:17;;;;;;;10.48;4.25;;;;;;;8.75;42.82;101065.84;4368482;32;33358;-87
2022/01/19 13:00:53;;;;;;;8.52;3.87;;;;;;;8.79;42.86;101062.25;4352951;32;33358;-87
2022/01/19 13:03:31;;;;;;;13.60;4.03;;;;;;;8.83;42.54;101045.53;4366020;32;32786;-86
2022/01/19 13:06:10;;;;;;;12.77;5.15;;;;;;;8.32;43.79;101053.28;4377320;32;33908;-87
2022/01/19 13:08:48;;;;;;;14.07;5.47;;;;;;;8.26;44.62;101045.50;4360137;32;33271;-87
2022/01/19 13:11:22;;;;;;;11.15;4.62;;;;;;;8.19;44.61;101046.47;4361337;32;33479;-87
2022/01/19 13:14:04;;;;;;;12.98;4.60;;;;;;;7.77;45.16;101040.87;4365969;32;34549;-86
2022/01/19 13:16:35;;;;;;;13.13;5.40;;;;;;;8.02;45.12;101041.41;4368639;32;33455;-86
2022/01/19 13:19:14;;;;;;;16.52;5.53;;;;;;;7.32;46.45;101032.63;4354686;32;32364;-87
2022/01/19 13:21:43;;;;;;;10.27;4.35;;;;;;;7.25;46.63;101035.34;4365208;32;31918;-87
2022/01/19 13:24:25;;;;;;;17.25;4.85;;;;;;;7.00;47.42;101037.34;4361051;32;34336;-87
2022/01/19 13:26:57;;;;;;;16.58;5.10;;;;;;;6.94;47.32;101043.53;4374157;32;32460;-87